Benxi, China
Current Conditions -  °F | °C
As of 6:00 AM on Tuesday 23 Dec 2014 (Local Time) from ZYTX Reporting Station
Clear Clear  
Wind Chill: 17°   Ceiling: Unl
Heat Index: 25°   Visibility: 6mi
Dew Point: 12°   Wind: 7mph
Humidity: 59%   Direction: 150°SSE
Pressure: 30.06"   Gusts: NA
Location:  41.33°N, 123.75°E
Report Text: ZYTX 222200Z 15003MPS CAVOK M04/M11 Q1018 NOSIG
Loading
Personal Weather Stations






























Interactive Weather Map New forecast layout! Learn more

10-Day Weather Forecast

Advertisements
Track Severe Weather on mobile